createdAt,value
2023-02-13T00:01:16.299Z,99685.01120897604
2023-02-13T00:04:16.019Z,99684.77341809928
2023-02-13T00:07:16.095Z,99687.59323700696
2023-02-13T00:11:16.070Z,99688.13367279532
2023-02-13T00:14:16.424Z,99696.66633150411
2023-02-13T00:17:16.491Z,99699.81357250216
2023-02-13T00:21:16.157Z,99701.58967177395
2023-02-13T00:24:16.777Z,99702.03750198409
2023-02-13T00:27:16.495Z,99701.24885280062
2023-02-13T00:31:17.933Z,99706.50648804086
2023-02-13T00:34:16.273Z,99702.41919562542
2023-02-13T00:37:16.041Z,99700.29540164446
2023-02-13T00:41:17.099Z,99712.98454235891
2023-02-13T00:44:15.782Z,99716.23698300502
2023-02-13T00:47:15.805Z,99709.7967108982
2023-02-13T00:51:16.270Z,99712.62886971758
2023-02-13T00:54:16.896Z,99716.56474737739
2023-02-13T00:57:16.735Z,99711.75493336994
2023-02-13T01:01:16.100Z,99703.8969781464
2023-02-13T01:04:16.375Z,99698.30512374085
2023-02-13T01:07:16.806Z,99692.288252171
2023-02-13T01:11:16.133Z,99690.06354880641
2023-02-13T01:14:16.360Z,99687.35762520469
2023-02-13T01:17:16.339Z,99680.1532057238
2023-02-13T01:21:18.972Z,99686.96653779139
2023-02-13T01:24:16.602Z,99685.19982720785
2023-02-13T01:27:17.268Z,99687.9025221468
2023-02-13T01:31:15.683Z,99693.84788497235
2023-02-13T01:34:16.161Z,99697.24013967512
2023-02-13T01:37:16.260Z,99706.53105528325
2023-02-13T01:41:16.284Z,99709.48686539603
2023-02-13T01:44:51.110Z,99708.72110628805
2023-02-13T01:47:23.748Z,99716.18995154917
2023-02-13T01:51:20.216Z,99714.08397960624
2023-02-13T01:54:20.656Z,99712.72226266809
2023-02-13T01:57:20.454Z,99714.76879931534
2023-02-13T02:01:16.457Z,99711.45761935986
2023-02-13T02:04:21.487Z,99703.64286019266
2023-02-13T02:07:20.501Z,99702.43440128054
2023-02-13T02:11:23.039Z,99701.62900508747
2023-02-13T02:14:17.327Z,99707.44603724475
2023-02-13T02:17:16.899Z,99711.08500346505
2023-02-13T02:31:59.471Z,99718.07073399443
2023-02-13T02:34:28.501Z,99718.5663430514
2023-02-13T02:37:31.384Z,99722.58037402132
2023-02-13T02:41:53.643Z,99721.15730638642
2023-02-13T02:44:31.274Z,99722.27769929689
2023-02-13T02:51:22.785Z,99717.05346633999
2023-02-13T03:22:30.448Z,99728.38097054811
2023-02-13T03:24:24.480Z,99729.32429906177
2023-02-13T03:27:29.228Z,99723.9908718206
2023-02-13T03:31:28.085Z,99733.71443739861
2023-02-13T03:34:22.617Z,99733.45356786628
2023-02-13T03:38:27.144Z,99731.07785177029
2023-02-13T03:41:23.964Z,99742.38870343383
2023-02-13T03:44:23.480Z,99734.84768713027
2023-02-13T03:47:16.767Z,99740.6053487909
2023-02-13T03:51:22.783Z,99736.33964978415
2023-02-13T03:54:20.748Z,99741.67517215801
2023-02-13T04:01:18.600Z,99750.28894163252
2023-02-13T04:04:24.459Z,99750.44910352856
2023-02-13T04:07:29.699Z,99747.16261306217
2023-02-13T04:11:24.493Z,99752.40066703099
2023-02-13T04:14:21.870Z,99751.00106460323
2023-02-13T04:17:22.052Z,99759.1290753147
2023-02-13T04:21:15.693Z,99758.93335939484
2023-02-13T04:24:16.047Z,99767.25660444176
2023-02-13T04:27:17.426Z,99766.73543168268
2023-02-13T04:31:16.218Z,99763.03622886317
2023-02-13T04:34:16.719Z,99759.58834410415
2023-02-13T04:37:16.293Z,99757.28198713645
2023-02-13T04:41:16.872Z,99764.14640052569
2023-02-13T04:44:16.546Z,99759.07646506156
2023-02-13T04:47:16.489Z,99767.69220461516
2023-02-13T04:51:16.476Z,99768.53795037902
2023-02-13T04:54:16.646Z,99767.5572344122
2023-02-13T04:57:16.806Z,99771.71755877892
2023-02-13T05:01:16.849Z,99774.57494482659
2023-02-13T05:04:17.724Z,99776.97981449246
2023-02-13T05:07:16.279Z,99769.5031235497
2023-02-13T05:11:16.288Z,99774.48924257181
2023-02-13T05:14:16.629Z,99783.20738759072
2023-02-13T05:17:16.753Z,99782.78330189687
2023-02-13T05:31:16.574Z,99790.75431215549
2023-02-13T05:34:17.045Z,99795.89534613758
2023-02-13T05:37:16.696Z,99793.20011763378
2023-02-13T05:41:15.924Z,99796.0994156676
2023-02-13T05:44:16.352Z,99798.57208778677
2023-02-13T05:47:16.127Z,99801.53476605483
2023-02-13T05:51:15.714Z,99799.68082719356
2023-02-13T05:54:16.179Z,99812.07695220708
2023-02-13T05:57:16.215Z,99808.66167657255
2023-02-13T06:01:19.564Z,99811.36255445388
2023-02-13T06:04:19.643Z,99816.63400292012
2023-02-13T06:07:19.533Z,99820.60553004796
2023-02-13T06:11:17.651Z,99823.01330160431
2023-02-13T06:14:16.818Z,99829.39213142089
2023-02-13T06:17:16.453Z,99839.44583889368
2023-02-13T06:21:16.279Z,99837.81852714127
2023-02-13T06:24:16.704Z,99842.53756964015
2023-02-13T06:27:16.500Z,99846.98865880388
2023-02-13T06:31:16.231Z,99843.50769649404
2023-02-13T06:34:16.495Z,99845.2941774118
2023-02-13T06:37:16.549Z,99857.2034837801
2023-02-13T06:41:16.210Z,99862.24824144268
2023-02-13T06:44:16.718Z,99859.60872434555
2023-02-13T06:47:16.990Z,99860.45570859185
2023-02-13T06:51:15.640Z,99863.49990413352
2023-02-13T06:54:16.144Z,99870.04190706825
2023-02-13T06:57:16.259Z,99874.39932291849
2023-02-13T07:01:15.866Z,99872.10657618518
2023-02-13T07:04:16.231Z,99880.95565451174
2023-02-13T07:07:16.208Z,99881.05335932807
2023-02-13T07:11:17.453Z,99879.3893523392
2023-02-13T07:14:16.317Z,99888.63334257092
2023-02-13T07:17:17.374Z,99888.92104756883
2023-02-13T07:21:16.492Z,99882.62241114154
2023-02-13T07:24:16.656Z,99881.55800061446
2023-02-13T07:27:16.562Z,99884.85692086935
2023-02-13T07:31:16.694Z,99881.73812732924
2023-02-13T07:34:16.995Z,99892.8446473803
2023-02-13T07:37:17.001Z,99888.81211239504
2023-02-13T07:41:15.844Z,99892.62349698595
2023-02-13T07:44:16.153Z,99895.45881333933
2023-02-13T07:47:19.013Z,99903.01110479484
2023-02-13T07:51:16.510Z,99899.89308690683
2023-02-13T07:54:22.779Z,99904.58314669473
2023-02-13T07:57:17.201Z,99905.9532389393
2023-02-13T08:01:17.039Z,99904.12865388814
2023-02-13T08:04:16.932Z,99909.10609214155
2023-02-13T08:07:17.205Z,99911.77236033545
2023-02-13T08:12:21.464Z,99913.55093794866
2023-02-13T08:14:16.383Z,99912.04670023362
2023-02-13T08:17:17.844Z,99908.61297971845
2023-02-13T08:21:17.690Z,99909.82654955144
2023-02-13T08:24:18.198Z,99906.49678869222
2023-02-13T08:27:16.994Z,99909.89808113695
2023-02-13T08:31:16.033Z,99912.17674530907
2023-02-13T08:34:16.337Z,99908.39991884459
2023-02-13T08:37:16.506Z,99909.51853064155
2023-02-13T08:41:18.729Z,99916.61736854303
2023-02-13T08:44:16.260Z,99917.55552931066
2023-02-13T08:47:16.189Z,99918.7600775105
2023-02-13T08:51:17.013Z,99917.78649007557
2023-02-13T08:54:16.462Z,99925.41474455869
2023-02-13T08:57:16.360Z,99923.77152845595
2023-02-13T09:01:16.449Z,99925.33211138379
2023-02-13T09:04:18.532Z,99923.81444956094
2023-02-13T09:07:16.762Z,99926.68678730997
2023-02-13T09:11:16.912Z,99926.24444332633
2023-02-13T09:14:16.785Z,99922.67265473981
2023-02-13T09:17:19.027Z,99926.1471304819
2023-02-13T09:21:18.264Z,99921.95025250631
2023-02-13T09:24:16.536Z,99926.11780214884
2023-02-13T09:27:16.865Z,99921.87476910875
2023-02-13T09:31:18.652Z,99917.34284238148
2023-02-13T09:34:16.196Z,99917.47320050553
2023-02-13T09:37:16.192Z,99918.21320690682
2023-02-13T09:41:19.991Z,99917.91146062667
2023-02-13T09:44:38.222Z,99919.28084200913
2023-02-13T09:47:22.936Z,99920.69987349465
2023-02-13T09:51:19.490Z,99913.67327193865
2023-02-13T09:54:16.858Z,99925.43202862781
2023-02-13T09:57:24.631Z,99914.06345309422
2023-02-13T10:01:23.036Z,99905.56471903076
2023-02-13T10:04:28.824Z,99899.62786182469
2023-02-13T10:07:22.344Z,99902.01772925176
2023-02-13T10:11:34.915Z,99898.43660114711
2023-02-13T10:14:19.678Z,99893.66669097233
2023-02-13T10:17:22.540Z,99894.60399412464
2023-02-13T10:21:20.604Z,99893.60508168556
2023-02-13T10:24:27.331Z,99885.25401826593
2023-02-13T10:27:22.449Z,99885.709749168
2023-02-13T10:31:22.039Z,99880.85759751803
2023-02-13T10:34:21.268Z,99878.21314746773
2023-02-13T10:37:18.551Z,99875.35914405511
2023-02-13T10:41:25.336Z,99874.51274580139
2023-02-13T10:44:33.235Z,99872.72023829861
2023-02-13T10:47:35.740Z,99878.2340997521
2023-02-13T10:51:27.817Z,99870.3277074526
2023-02-13T10:54:30.734Z,99865.25480654981
2023-02-13T10:57:23.855Z,99856.11130422706
2023-02-13T11:01:22.543Z,99839.29218429003
2023-02-13T11:04:18.557Z,99842.6277565911
2023-02-13T11:07:22.127Z,99836.61823795647
2023-02-13T11:11:34.631Z,99832.53298294445
2023-02-13T11:14:20.503Z,99828.82999851815
2023-02-13T11:17:20.071Z,99832.94147437288
2023-02-13T11:21:21.164Z,99829.00808229561
2023-02-13T11:24:22.119Z,99826.51476501908
2023-02-13T11:27:26.021Z,99830.71436350328
2023-02-13T11:31:25.439Z,99824.64147797001
2023-02-13T11:34:24.926Z,99820.87592975418
2023-02-13T11:37:22.323Z,99818.25901091323
2023-02-13T11:41:19.282Z,99806.94294715153
2023-02-13T11:44:22.919Z,99804.8530523407
2023-02-13T11:47:30.561Z,99804.25292561261
2023-02-13T11:51:16.467Z,99793.54640593204
2023-02-13T11:54:25.543Z,99792.02140973728
2023-02-13T11:57:20.837Z,99793.14076940685
2023-02-13T12:01:26.936Z,99792.03000962969
2023-02-13T12:04:21.554Z,99791.5713847847
2023-02-13T12:07:20.329Z,99787.06862492258
2023-02-13T12:11:21.614Z,99789.5103793671
2023-02-13T12:14:20.516Z,99790.17556466546
2023-02-13T12:17:31.193Z,99787.39067670683
2023-02-13T12:21:27.406Z,99781.57692336029
2023-02-13T12:24:30.032Z,99784.89229226328
2023-02-13T12:27:25.124Z,99775.49133199357
2023-02-13T12:31:32.540Z,99765.76801926357
2023-02-13T12:34:50.082Z,99763.74394332906
2023-02-13T12:37:33.030Z,99762.07521668506
2023-02-13T12:41:21.018Z,99754.05882308644
2023-02-13T13:01:25.140Z,99729.37837038533
2023-02-13T13:04:25.838Z,99729.62188095816
2023-02-13T13:07:33.410Z,99722.898874772
2023-02-13T13:11:34.176Z,99718.08923019608
2023-02-13T13:14:25.347Z,99720.6469948214
2023-02-13T13:17:29.348Z,99717.07194897634
2023-02-13T13:21:30.065Z,99722.77589275486
2023-02-13T13:24:27.334Z,99722.26800030195
2023-02-13T13:27:22.435Z,99720.12456145661
2023-02-13T13:31:17.029Z,99722.69047508098
2023-02-13T13:34:21.753Z,99721.1020615368
2023-02-13T13:37:25.693Z,99721.02264123525
2023-02-13T13:41:21.257Z,99721.3546112211
2023-02-13T13:44:33.312Z,99718.00056648797
2023-02-13T13:47:28.103Z,99720.10495225845
2023-02-13T13:51:18.052Z,99717.88697688156
2023-02-13T13:54:19.192Z,99720.99684029356
2023-02-13T13:57:17.018Z,99722.48172880537
2023-02-13T14:01:20.086Z,99722.31880885341
2023-02-13T14:04:38.902Z,99718.05324070327
2023-02-13T14:07:23.446Z,99728.52160032174
2023-02-13T14:11:37.169Z,99720.63725374329
2023-02-13T14:14:48.538Z,99725.59762547015
2023-02-13T14:17:50.067Z,99725.01307481455
2023-02-13T14:21:23.278Z,99722.18720983744
2023-02-13T14:24:18.571Z,99722.59402848051
2023-02-13T14:27:22.847Z,99724.29862950598
2023-02-13T14:31:22.531Z,99728.54152668643
2023-02-13T14:34:23.359Z,99727.05679876977
2023-02-13T14:37:27.755Z,99725.54020535006
2023-02-13T14:41:43.143Z,99723.84950045582
2023-02-13T14:44:21.500Z,99726.82349283756
2023-02-13T14:47:21.388Z,99731.34600863732
2023-02-13T14:51:32.884Z,99726.24702877864
2023-02-13T14:54:24.658Z,99729.02183785553
2023-02-13T14:57:20.104Z,99722.59171258585
2023-02-13T15:01:27.988Z,99721.75263340026
2023-02-13T15:04:25.988Z,99719.70312174309
2023-02-13T15:07:23.680Z,99718.33902871919
2023-02-13T15:11:38.183Z,99720.78467900015
2023-02-13T15:14:19.145Z,99720.43616772127
2023-02-13T15:17:20.594Z,99721.1814955543
2023-02-13T15:21:20.850Z,99718.58402698275
2023-02-13T15:24:19.184Z,99724.63498060919
2023-02-13T15:27:20.315Z,99723.18462478023
2023-02-13T15:31:22.871Z,99723.98830010387
2023-02-13T15:34:21.044Z,99719.66571866046
2023-02-13T15:37:21.036Z,99723.14031754548
2023-02-13T15:41:20.826Z,99723.17282633955
2023-02-13T15:44:19.897Z,99724.25100372949
2023-02-13T15:47:25.702Z,99719.51254693374
2023-02-13T15:51:19.454Z,99724.60615043096
2023-02-13T15:54:24.813Z,99727.22000346756
2023-02-13T15:57:17.658Z,99730.95264219807
2023-02-13T16:01:17.029Z,99727.93816989059
2023-02-13T16:04:17.856Z,99732.76175300381
2023-02-13T16:07:16.790Z,99734.61560015581
2023-02-13T16:11:22.765Z,99739.68903605978
2023-02-13T16:14:20.132Z,99748.73593115604
2023-02-13T16:17:21.617Z,99748.38797008546
2023-02-13T16:21:20.843Z,99753.55571886967
2023-02-13T16:24:18.157Z,99756.51713215196
2023-02-13T16:27:18.030Z,99760.64485930261
2023-02-13T16:31:16.532Z,99763.82940320604
2023-02-13T16:34:24.700Z,99771.10171153232
2023-02-13T16:37:33.704Z,99771.0551793683
2023-02-13T16:41:32.833Z,99782.27227394813
2023-02-13T16:44:25.970Z,99786.76610792404
2023-02-13T16:47:22.302Z,99797.41720473363
2023-02-13T16:51:24.971Z,99807.54666249696
2023-02-13T16:54:22.380Z,99807.64546350908
2023-02-13T16:57:22.852Z,99810.92105057696
2023-02-13T17:01:18.910Z,99809.04692207686
2023-02-13T17:04:21.387Z,99818.39545347454
2023-02-13T17:07:20.362Z,99820.15309022457
2023-02-13T17:11:19.110Z,99818.4854118708
2023-02-13T17:14:18.565Z,99819.8094410127
2023-02-13T17:17:18.142Z,99832.24157656336
2023-02-13T17:21:16.390Z,99838.25718613018
2023-02-13T17:24:17.461Z,99832.3077889904
2023-02-13T17:27:16.787Z,99830.87211761404
2023-02-13T17:31:16.217Z,99842.99487365753
2023-02-13T17:34:16.466Z,99853.40974287727
2023-02-13T17:37:18.561Z,99849.98249282716
2023-02-13T17:41:16.684Z,99854.72685162412
2023-02-13T17:44:16.808Z,99859.95325516099
2023-02-13T17:47:17.016Z,99861.53559924908
2023-02-13T17:51:16.518Z,99859.590968717
2023-02-13T17:54:16.768Z,99860.82577231128
2023-02-13T17:57:17.581Z,99868.29026775096
2023-02-13T18:01:16.605Z,99872.3081112051
2023-02-13T18:04:18.187Z,99867.35748172177
2023-02-13T18:07:19.837Z,99858.7373399123
2023-02-13T18:11:16.553Z,99862.50023910102
2023-02-13T18:14:16.918Z,99873.94689093248
2023-02-13T18:17:17.792Z,99866.97545684347
2023-02-13T18:21:15.844Z,99867.51296110287
2023-02-13T18:24:16.199Z,99875.9889562958
2023-02-13T18:27:16.838Z,99875.40003116216
2023-02-13T18:31:16.816Z,99879.11995774861
2023-02-13T18:34:16.315Z,99876.66924294554
2023-02-13T18:37:17.406Z,99874.71929905664
2023-02-13T18:41:15.884Z,99875.31946710289
2023-02-13T18:44:27.066Z,99868.4810629286
2023-02-13T18:47:16.300Z,99870.48383225514
2023-02-13T18:51:15.719Z,99869.21511895525
2023-02-13T18:54:16.575Z,99868.92366409185
2023-02-13T18:57:16.173Z,99868.46969336044
2023-02-13T19:01:21.292Z,99870.9800407159
2023-02-13T19:04:16.435Z,99866.31249487784
2023-02-13T19:07:16.383Z,99867.6925221616
2023-02-13T19:11:18.760Z,99871.88385265494
2023-02-13T19:14:16.504Z,99875.31129258101
2023-02-13T19:17:16.481Z,99878.234746881
2023-02-13T19:21:17.517Z,99882.51084152084
2023-02-13T19:24:16.419Z,99886.20783425472
2023-02-13T19:27:17.847Z,99886.23291827792
2023-02-13T19:31:18.513Z,99887.6762097006
2023-02-13T19:34:16.700Z,99887.11419351907
2023-02-13T19:37:16.756Z,99889.17995474182
2023-02-13T19:41:17.296Z,99888.61147908182
2023-02-13T19:44:16.609Z,99889.79089115457
2023-02-13T19:47:16.690Z,99887.50192650195
2023-02-13T19:51:18.717Z,99889.29942892188
2023-02-13T19:54:16.633Z,99894.00521521346
2023-02-13T19:57:16.579Z,99898.34806075478
2023-02-13T20:01:18.372Z,99899.14328902877
2023-02-13T20:04:17.052Z,99899.29828203327
2023-02-13T20:07:16.773Z,99899.46015251915
2023-02-13T20:11:20.839Z,99904.70923833328
2023-02-13T20:14:16.956Z,99907.9443643736
2023-02-13T20:17:17.293Z,99903.69592850038
2023-02-13T20:21:16.749Z,99908.6924298154
2023-02-13T20:24:16.313Z,99910.93843039182
2023-02-13T20:27:16.502Z,99910.8419206558
2023-02-13T20:31:19.264Z,99907.1632090358
2023-02-13T20:34:16.482Z,99911.86794902175
2023-02-13T20:37:16.692Z,99907.47741484127
2023-02-13T20:41:19.130Z,99911.76789232287
2023-02-13T20:44:18.689Z,99918.10244716452
2023-02-13T20:47:17.980Z,99919.17681789934
2023-02-13T20:51:18.563Z,99913.75417620089
2023-02-13T20:54:17.313Z,99912.1545314593
2023-02-13T20:57:17.124Z,99913.5319366122
2023-02-13T21:01:28.382Z,99918.71363552965
2023-02-13T21:04:20.848Z,99922.20828089815
2023-02-13T21:07:19.976Z,99927.2641073439
2023-02-13T21:11:18.305Z,99919.21900459909
2023-02-13T21:14:17.432Z,99919.5409382338
2023-02-13T21:17:16.999Z,99914.2793253917
2023-02-13T21:21:17.861Z,99917.58651870208
2023-02-13T21:24:20.156Z,99918.08485376967
2023-02-13T21:27:17.047Z,99917.5593287786
2023-02-13T21:31:18.996Z,99915.7899100088
2023-02-13T21:34:18.313Z,99915.43122123678
2023-02-13T21:37:17.202Z,99918.08473019073
2023-02-13T21:41:18.096Z,99916.93369654662
2023-02-13T21:44:16.787Z,99915.23068384254
2023-02-13T21:47:17.381Z,99923.53911093737
2023-02-13T21:51:18.318Z,99914.92820936684
2023-02-13T21:54:16.675Z,99914.27569271758
2023-02-13T21:57:16.471Z,99915.75082572695
2023-02-13T22:01:26.161Z,99912.57084085676
2023-02-13T22:04:17.297Z,99910.0153601228
2023-02-13T22:07:16.998Z,99914.5429853431
2023-02-13T22:11:16.794Z,99915.00493389685
2023-02-13T22:14:17.300Z,99919.12610402517
2023-02-13T22:17:16.266Z,99914.28616078525
2023-02-13T22:21:17.544Z,99913.37688007002
2023-02-13T22:24:16.694Z,99916.47709898521
2023-02-13T22:27:16.380Z,99915.188510545
2023-02-13T22:31:17.331Z,99919.46197353028
2023-02-13T22:34:16.802Z,99919.01172954762
2023-02-13T22:37:16.625Z,99922.70473319216
2023-02-13T22:41:17.889Z,99918.77713174744
2023-02-13T22:44:16.087Z,99915.80875233373
2023-02-13T22:47:16.150Z,99909.66181481144
2023-02-13T22:51:18.338Z,99913.67684471031
2023-02-13T22:54:16.594Z,99916.38505794734
2023-02-13T22:57:16.477Z,99919.12806133546
2023-02-13T23:01:19.629Z,99917.27200791288
2023-02-13T23:04:16.888Z,99916.91576619289
2023-02-13T23:07:18.654Z,99917.63543822753
2023-02-13T23:21:16.479Z,99912.59398738846
2023-02-13T23:31:16.796Z,99910.38131073778
2023-02-13T23:34:17.164Z,99906.27886842743
2023-02-13T23:37:16.834Z,99910.34823534396
2023-02-13T23:41:16.412Z,99906.01654081336
2023-02-13T23:44:16.865Z,99898.00791858658
2023-02-13T23:47:16.887Z,99897.39020768963
2023-02-13T23:51:16.365Z,99892.40638723681
2023-02-13T23:54:18.892Z,99889.64078603034
2023-02-13T23:57:21.492Z,99892.20836000213
